createdAt,value
2019-06-01T00:01:18.719Z,13.00
2019-06-01T00:03:47.155Z,12.80
2019-06-01T00:06:15.587Z,12.80
2019-06-01T00:08:45.073Z,12.60
2019-06-01T00:11:13.626Z,12.50
2019-06-01T00:13:42.059Z,12.50
2019-06-01T00:16:10.483Z,12.50
2019-06-01T00:18:39.817Z,12.60
2019-06-01T00:21:08.329Z,12.60
2019-06-01T00:23:36.780Z,12.60
2019-06-01T00:26:05.203Z,12.60
2019-06-01T00:28:33.642Z,12.40
2019-06-01T00:31:02.144Z,12.20
2019-06-01T00:33:30.590Z,12.20
2019-06-01T00:35:59.046Z,12.30
2019-06-01T00:38:27.494Z,12.30
2019-06-01T00:40:55.934Z,12.40
2019-06-01T00:43:24.431Z,12.30
2019-06-01T00:45:53.227Z,12.10
2019-06-01T00:48:21.738Z,11.90
2019-06-01T00:50:50.989Z,11.90
2019-06-01T00:53:19.587Z,12.00
2019-06-01T00:55:49.340Z,11.90
2019-06-01T00:58:17.880Z,11.90
2019-06-01T01:00:47.754Z,12.00
2019-06-01T01:03:16.635Z,11.90
2019-06-01T01:05:46.944Z,11.90
2019-06-01T01:08:15.238Z,11.90
2019-06-01T01:10:44.819Z,11.90
2019-06-01T01:13:14.982Z,11.90
2019-06-01T01:15:43.428Z,11.80
2019-06-01T01:18:12.438Z,11.70
2019-06-01T01:20:40.945Z,11.70
2019-06-01T01:23:09.453Z,11.60
2019-06-01T01:25:37.897Z,11.50
2019-06-01T01:28:06.371Z,11.50
2019-06-01T01:30:34.883Z,11.60
2019-06-01T01:33:03.376Z,11.60
2019-06-01T01:35:31.815Z,11.60
2019-06-01T01:38:00.400Z,11.70
2019-06-01T01:40:29.422Z,11.70
2019-06-01T01:42:58.924Z,11.60
2019-06-01T01:45:27.620Z,11.50
2019-06-01T01:47:57.190Z,11.20
2019-06-01T01:50:26.997Z,11.30
2019-06-01T01:52:56.833Z,11.30
2019-06-01T01:55:25.735Z,11.10
2019-06-01T01:57:55.426Z,11.10
2019-06-01T02:00:35.916Z,11.20
2019-06-01T02:03:05.922Z,11.20
2019-06-01T02:05:34.366Z,11.20
2019-06-01T02:08:02.783Z,11.20
2019-06-01T02:10:31.286Z,11.20
2019-06-01T02:12:59.742Z,11.30
2019-06-01T02:15:28.246Z,11.10
2019-06-01T02:17:58.090Z,11.00
2019-06-01T02:20:26.718Z,10.90
2019-06-01T02:22:55.137Z,11.00
2019-06-01T02:25:23.577Z,11.10
2019-06-01T02:27:53.098Z,10.90
2019-06-01T02:30:21.757Z,10.90
2019-06-01T02:32:50.198Z,11.00
2019-06-01T02:35:18.709Z,10.90
2019-06-01T02:37:47.134Z,10.90
2019-06-01T02:40:17.003Z,11.00
2019-06-01T02:42:45.897Z,11.00
2019-06-01T02:45:14.883Z,11.00
2019-06-01T02:47:43.310Z,11.10
2019-06-01T02:50:12.022Z,11.00
2019-06-01T02:52:40.508Z,11.00
2019-06-01T02:55:15.203Z,11.00
2019-06-01T02:57:43.713Z,11.00
2019-06-01T03:00:15.498Z,11.00
2019-06-01T03:02:44.437Z,10.80
2019-06-01T03:05:13.027Z,10.60
2019-06-01T03:07:43.917Z,10.60
2019-06-01T03:10:12.719Z,10.70
2019-06-01T03:12:44.027Z,10.70
2019-06-01T03:15:13.130Z,10.60
2019-06-01T03:17:44.641Z,10.50
2019-06-01T03:20:13.338Z,10.40
2019-06-01T03:22:43.094Z,10.30
2019-06-01T03:25:12.310Z,10.20
2019-06-01T03:27:43.443Z,10.30
2019-06-01T03:30:15.451Z,10.30
2019-06-01T03:32:42.752Z,10.50
2019-06-01T03:35:11.318Z,10.50
2019-06-01T03:37:39.766Z,10.60
2019-06-01T03:40:15.699Z,10.60
2019-06-01T03:42:40.367Z,10.60
2019-06-01T03:45:09.641Z,10.50
2019-06-01T03:47:38.172Z,10.40
2019-06-01T03:50:07.730Z,10.40
2019-06-01T03:52:37.162Z,10.40
2019-06-01T03:55:06.343Z,10.40
2019-06-01T03:57:34.778Z,10.40
2019-06-01T04:00:05.003Z,10.30
2019-06-01T04:02:33.584Z,10.40
2019-06-01T04:05:03.347Z,10.30
2019-06-01T04:07:32.113Z,10.30
2019-06-01T04:10:01.615Z,10.40
2019-06-01T04:12:30.468Z,10.50
2019-06-01T04:14:58.966Z,10.60
2019-06-01T04:17:27.416Z,10.70
2019-06-01T04:19:55.837Z,10.70
2019-06-01T04:22:24.272Z,10.80
2019-06-01T04:24:52.686Z,10.80
2019-06-01T04:27:21.155Z,10.90
2019-06-01T04:29:49.647Z,11.00
2019-06-01T04:32:18.095Z,11.20
2019-06-01T04:34:46.518Z,11.20
2019-06-01T04:37:14.963Z,11.00
2019-06-01T04:39:43.387Z,10.90
2019-06-01T04:42:11.893Z,11.10
2019-06-01T04:44:40.360Z,11.00
2019-06-01T04:47:09.303Z,11.10
2019-06-01T04:49:39.375Z,11.20
2019-06-01T04:52:08.825Z,11.20
2019-06-01T04:54:37.347Z,11.30
2019-06-01T04:57:06.791Z,11.70
2019-06-01T04:59:37.815Z,11.80
2019-06-01T05:02:06.005Z,12.00
2019-06-01T05:04:35.724Z,12.20
2019-06-01T05:07:05.057Z,12.30
2019-06-01T05:09:33.560Z,12.40
2019-06-01T05:12:02.002Z,12.60
2019-06-01T05:14:30.418Z,12.60
2019-06-01T05:16:58.870Z,12.70
2019-06-01T05:19:27.294Z,12.70
2019-06-01T05:21:55.726Z,12.80
2019-06-01T05:24:24.177Z,13.00
2019-06-01T05:26:52.674Z,13.30
2019-06-01T05:29:21.140Z,13.60
2019-06-01T05:31:49.629Z,13.70
2019-06-01T05:34:18.516Z,14.20
2019-06-01T05:36:47.162Z,14.60
2019-06-01T05:39:16.423Z,14.70
2019-06-01T05:41:44.897Z,14.80
2019-06-01T05:44:13.336Z,15.00
2019-06-01T05:46:41.830Z,15.30
2019-06-01T05:49:12.007Z,15.60
2019-06-01T05:51:40.478Z,15.80
2019-06-01T05:54:08.958Z,16.10
2019-06-01T05:56:37.419Z,16.40
2019-06-01T05:59:05.862Z,16.80
2019-06-01T06:01:34.306Z,17.00
2019-06-01T06:04:02.742Z,17.30
2019-06-01T06:06:31.164Z,17.60
2019-06-01T06:08:59.604Z,17.90
2019-06-01T06:11:28.039Z,17.70
2019-06-01T06:13:56.479Z,17.70
2019-06-01T06:16:24.904Z,17.80
2019-06-01T06:18:53.344Z,17.70
2019-06-01T06:21:22.427Z,17.80
2019-06-01T06:23:50.988Z,18.40
2019-06-01T06:26:20.517Z,18.40
2019-06-01T06:28:49.533Z,18.50
2019-06-01T06:31:19.051Z,18.90
2019-06-01T06:33:56.050Z,19.20
2019-06-01T06:36:17.862Z,19.00
2019-06-01T06:38:46.340Z,19.50
2019-06-01T06:41:15.845Z,19.60
2019-06-01T06:43:44.487Z,20.30
2019-06-01T06:46:12.931Z,20.40
2019-06-01T06:48:41.431Z,20.90
2019-06-01T06:51:09.851Z,21.00
2019-06-01T06:53:38.293Z,20.60
2019-06-01T06:56:06.709Z,21.10
2019-06-01T06:58:35.146Z,21.40
2019-06-01T07:01:04.054Z,21.30
2019-06-01T07:03:32.472Z,21.60
2019-06-01T07:06:00.904Z,21.90
2019-06-01T07:08:29.831Z,22.00
2019-06-01T07:10:58.368Z,22.00
2019-06-01T07:13:27.635Z,22.20
2019-06-01T07:15:56.192Z,22.60
2019-06-01T07:18:25.664Z,23.00
2019-06-01T07:20:54.366Z,22.10
2019-06-01T07:23:23.720Z,21.80
2019-06-01T07:25:52.310Z,22.90
2019-06-01T07:28:21.982Z,23.20
2019-06-01T07:30:50.912Z,23.00
2019-06-01T07:33:20.485Z,22.70
2019-06-01T07:35:49.039Z,23.30
2019-06-01T07:38:17.855Z,23.70
2019-06-01T07:40:46.865Z,24.10
2019-06-01T07:43:15.613Z,24.40
2019-06-01T07:45:44.115Z,24.20
2019-06-01T07:48:13.215Z,24.10
2019-06-01T07:50:42.066Z,24.60
2019-06-01T07:53:11.328Z,24.90
2019-06-01T07:55:40.319Z,24.70
2019-06-01T07:58:09.244Z,24.20
2019-06-01T08:00:38.277Z,25.20
2019-06-01T08:03:06.906Z,25.40
2019-06-01T08:05:35.574Z,25.40
2019-06-01T08:08:04.566Z,24.30
2019-06-01T08:10:33.302Z,24.60
2019-06-01T08:13:01.865Z,25.20
2019-06-01T08:15:31.748Z,25.70
2019-06-01T08:18:00.332Z,24.40
2019-06-01T08:20:29.118Z,25.20
2019-06-01T08:22:58.779Z,25.90
2019-06-01T08:25:28.567Z,26.40
2019-06-01T08:27:57.760Z,26.80
2019-06-01T08:30:26.479Z,26.70
2019-06-01T08:32:55.253Z,26.90
2019-06-01T08:35:24.906Z,27.10
2019-06-01T08:37:53.868Z,27.40
2019-06-01T08:40:23.307Z,27.30
2019-06-01T08:42:51.901Z,27.30
2019-06-01T08:45:20.832Z,27.70
2019-06-01T08:47:49.336Z,27.50
2019-06-01T08:50:18.740Z,27.80
2019-06-01T08:52:47.807Z,27.60
2019-06-01T08:55:16.298Z,27.10
2019-06-01T08:57:44.734Z,27.20
2019-06-01T09:00:13.604Z,26.70
2019-06-01T09:02:42.034Z,27.10
2019-06-01T09:05:23.769Z,27.10
2019-06-01T09:07:41.560Z,27.00
2019-06-01T09:10:11.626Z,26.90
2019-06-01T09:12:40.367Z,27.40
2019-06-01T09:15:09.446Z,26.90
2019-06-01T09:17:37.881Z,27.50
2019-06-01T09:20:06.976Z,28.00
2019-06-01T09:22:35.789Z,28.00
2019-06-01T09:25:04.827Z,27.40
2019-06-01T09:27:33.919Z,27.70
2019-06-01T09:30:02.607Z,28.00
2019-06-01T09:32:32.228Z,28.20
2019-06-01T09:35:00.893Z,28.20
2019-06-01T09:37:30.455Z,28.30
2019-06-01T09:39:59.092Z,28.30
2019-06-01T09:42:28.741Z,28.40
2019-06-01T09:44:57.359Z,28.40
2019-06-01T09:47:26.973Z,28.60
2019-06-01T09:49:55.747Z,28.70
2019-06-01T09:52:24.174Z,28.60
2019-06-01T09:54:52.597Z,28.60
2019-06-01T09:57:21.032Z,28.80
2019-06-01T09:59:50.132Z,28.20
2019-06-01T10:02:19.131Z,28.60
2019-06-01T10:04:48.030Z,28.80
2019-06-01T10:07:16.679Z,29.10
2019-06-01T10:09:45.192Z,29.20
2019-06-01T10:12:14.263Z,29.20
2019-06-01T10:14:43.078Z,29.20
2019-06-01T10:17:12.061Z,29.30
2019-06-01T10:19:40.954Z,29.60
2019-06-01T10:22:09.440Z,29.60
2019-06-01T10:24:39.196Z,29.50
2019-06-01T10:27:07.822Z,29.10
2019-06-01T10:29:36.728Z,29.50
2019-06-01T10:32:05.558Z,28.40
2019-06-01T10:34:33.983Z,28.80
2019-06-01T10:37:02.435Z,29.20
2019-06-01T10:39:31.232Z,29.40
2019-06-01T10:41:59.761Z,29.10
2019-06-01T10:44:28.183Z,29.10
2019-06-01T10:46:56.619Z,29.20
2019-06-01T10:49:25.050Z,28.90
2019-06-01T10:51:53.495Z,28.70
2019-06-01T10:54:21.920Z,29.40
2019-06-01T10:56:50.496Z,29.50
2019-06-01T10:59:19.149Z,29.80
2019-06-01T11:01:47.599Z,29.40
2019-06-01T11:04:16.021Z,29.50
2019-06-01T11:06:48.391Z,29.80
2019-06-01T11:09:14.619Z,30.20
2019-06-01T11:11:43.245Z,30.10
2019-06-01T11:14:11.759Z,29.90
2019-06-01T11:16:41.731Z,29.60
2019-06-01T11:19:10.476Z,29.40
2019-06-01T11:21:39.527Z,29.60
2019-06-01T11:24:08.189Z,29.90
2019-06-01T11:26:37.612Z,30.10
2019-06-01T11:29:06.222Z,30.10
2019-06-01T11:31:35.918Z,30.00
2019-06-01T11:34:04.600Z,29.80
2019-06-01T11:36:34.163Z,30.00
2019-06-01T11:39:02.825Z,29.90
2019-06-01T11:41:31.290Z,29.70
2019-06-01T11:43:59.717Z,29.40
2019-06-01T11:46:28.248Z,29.00
2019-06-01T11:48:56.749Z,28.20
2019-06-01T11:51:25.201Z,27.50
2019-06-01T11:53:53.628Z,26.50
2019-06-01T11:56:22.076Z,26.50
2019-06-01T11:58:50.518Z,27.20
2019-06-01T12:01:18.977Z,28.10
2019-06-01T12:03:47.398Z,28.20
2019-06-01T12:06:15.910Z,28.10
2019-06-01T12:08:44.339Z,28.70
2019-06-01T12:11:12.795Z,28.00
2019-06-01T12:13:42.201Z,26.90
2019-06-01T12:16:10.914Z,27.90
2019-06-01T12:18:40.563Z,28.60
2019-06-01T12:21:09.263Z,29.10
2019-06-01T12:23:38.884Z,29.20
2019-06-01T12:26:07.551Z,29.20
2019-06-01T12:28:37.440Z,28.90
2019-06-01T12:31:06.115Z,29.60
2019-06-01T12:33:34.606Z,28.60
2019-06-01T12:36:03.041Z,29.40
2019-06-01T12:38:33.119Z,29.20
2019-06-01T12:41:01.557Z,27.60
2019-06-01T12:43:30.004Z,27.80
2019-06-01T12:46:07.236Z,26.40
2019-06-01T12:48:28.582Z,27.20
2019-06-01T12:50:57.015Z,27.40
2019-06-01T12:53:25.470Z,27.00
2019-06-01T12:55:53.896Z,27.60
2019-06-01T12:58:22.346Z,28.30
2019-06-01T13:00:50.763Z,28.80
2019-06-01T13:03:19.194Z,29.20
2019-06-01T13:05:47.797Z,29.10
2019-06-01T13:08:16.241Z,29.30
2019-06-01T13:10:45.133Z,29.50
2019-06-01T13:13:13.570Z,28.70
2019-06-01T13:15:43.148Z,28.80
2019-06-01T13:18:11.782Z,28.40
2019-06-01T13:20:41.371Z,28.40
2019-06-01T13:23:09.942Z,29.00
2019-06-01T13:25:38.392Z,29.10
2019-06-01T13:28:06.835Z,29.50
2019-06-01T13:30:35.267Z,29.30
2019-06-01T13:33:03.784Z,28.30
2019-06-01T13:35:32.219Z,29.10
2019-06-01T13:38:11.656Z,29.40
2019-06-01T13:40:30.799Z,29.40
2019-06-01T13:42:59.222Z,29.60
2019-06-01T13:45:27.643Z,29.70
2019-06-01T13:47:56.073Z,29.30
2019-06-01T13:50:24.522Z,29.60
2019-06-01T13:52:54.128Z,29.80
2019-06-01T13:55:22.661Z,29.40
2019-06-01T13:57:52.337Z,28.60
2019-06-01T14:00:30.429Z,28.70
2019-06-01T14:02:54.137Z,28.90
2019-06-01T14:05:21.410Z,28.90
2019-06-01T14:07:49.825Z,28.30
2019-06-01T14:10:18.497Z,28.20
2019-06-01T14:12:47.439Z,28.20
2019-06-01T14:15:16.419Z,27.70
2019-06-01T14:17:45.952Z,28.00
2019-06-01T14:20:14.672Z,28.00
2019-06-01T14:22:43.133Z,28.20
2019-06-01T14:25:14.745Z,28.00
2019-06-01T14:27:41.895Z,28.30
2019-06-01T14:30:12.392Z,28.50
2019-06-01T14:32:40.816Z,27.90
2019-06-01T14:35:09.610Z,28.00
2019-06-01T14:37:38.026Z,27.40
2019-06-01T14:40:07.107Z,27.80
2019-06-01T14:42:35.523Z,28.20
2019-06-01T14:45:06.510Z,28.50
2019-06-01T14:47:34.931Z,27.70
2019-06-01T14:50:05.784Z,27.20
2019-06-01T14:52:35.260Z,27.50
2019-06-01T14:55:06.459Z,27.70
2019-06-01T14:57:34.881Z,27.40
2019-06-01T15:00:04.687Z,28.00
2019-06-01T15:02:33.105Z,27.90
2019-06-01T15:05:01.551Z,27.20
2019-06-01T15:07:29.975Z,27.90
2019-06-01T15:09:58.521Z,27.80
2019-06-01T15:12:26.914Z,28.10
2019-06-01T15:14:55.581Z,28.40
2019-06-01T15:17:24.044Z,28.40
2019-06-01T15:19:52.502Z,28.00
2019-06-01T15:22:20.903Z,27.10
2019-06-01T15:24:50.326Z,27.60
2019-06-01T15:27:18.950Z,28.00
2019-06-01T15:29:47.383Z,27.90
2019-06-01T15:32:15.817Z,27.90
2019-06-01T15:34:44.307Z,28.00
2019-06-01T15:37:12.759Z,27.70
2019-06-01T15:39:41.202Z,27.30
2019-06-01T15:42:09.610Z,27.30
2019-06-01T15:44:38.051Z,27.40
2019-06-01T15:47:06.477Z,27.50
2019-06-01T15:49:34.922Z,27.80
2019-06-01T15:52:03.346Z,27.50
2019-06-01T15:54:31.807Z,27.20
2019-06-01T15:57:00.705Z,27.50
2019-06-01T15:59:29.312Z,27.30
2019-06-01T16:01:59.186Z,27.70
2019-06-01T16:04:27.767Z,27.40
2019-06-01T16:06:57.160Z,27.10
2019-06-01T16:09:41.558Z,27.00
2019-06-01T16:11:55.958Z,27.20
2019-06-01T16:14:24.403Z,27.40
2019-06-01T16:16:53.809Z,27.60
2019-06-01T16:19:22.400Z,27.70
2019-06-01T16:21:50.849Z,27.80
2019-06-01T16:24:19.297Z,27.70
2019-06-01T16:26:47.710Z,27.80
2019-06-01T16:29:16.146Z,27.60
2019-06-01T16:31:44.608Z,27.70
2019-06-01T16:34:13.114Z,27.30
2019-06-01T16:36:41.552Z,27.40
2019-06-01T16:39:10.755Z,27.50
2019-06-01T16:41:39.249Z,27.50
2019-06-01T16:44:07.721Z,27.50
2019-06-01T16:46:36.128Z,27.50
2019-06-01T16:49:05.806Z,27.60
2019-06-01T16:51:52.224Z,27.70
2019-06-01T16:54:20.805Z,27.30
2019-06-01T16:56:49.201Z,27.50
2019-06-01T16:59:17.869Z,27.40
2019-06-01T17:01:46.310Z,27.50
2019-06-01T17:04:14.874Z,27.40
2019-06-01T17:06:44.457Z,27.30
2019-06-01T17:09:12.957Z,27.20
2019-06-01T17:11:41.385Z,27.10
2019-06-01T17:14:09.818Z,27.30
2019-06-01T17:16:38.257Z,27.00
2019-06-01T17:19:07.218Z,26.80
2019-06-01T17:21:35.812Z,27.00
2019-06-01T17:24:04.577Z,26.90
2019-06-01T17:26:33.011Z,26.80
2019-06-01T17:29:02.149Z,26.50
2019-06-01T17:31:30.757Z,26.50
2019-06-01T17:34:00.322Z,26.60
2019-06-01T17:36:28.908Z,26.70
2019-06-01T17:38:57.364Z,26.80
2019-06-01T17:41:25.789Z,26.70
2019-06-01T17:43:54.205Z,26.50
2019-06-01T17:46:22.847Z,26.50
2019-06-01T17:48:51.271Z,26.40
2019-06-01T17:51:19.720Z,26.30
2019-06-01T17:53:48.133Z,26.30
2019-06-01T17:56:16.578Z,26.40
2019-06-01T17:58:48.070Z,26.40
2019-06-01T18:01:16.520Z,26.30
2019-06-01T18:03:45.021Z,26.20
2019-06-01T18:06:13.637Z,25.90
2019-06-01T18:08:42.047Z,25.60
2019-06-01T18:11:10.552Z,25.60
2019-06-01T18:13:39.044Z,25.50
2019-06-01T18:16:08.273Z,25.50
2019-06-01T18:18:36.798Z,25.50
2019-06-01T18:21:06.309Z,25.50
2019-06-01T18:23:34.896Z,25.50
2019-06-01T18:26:04.976Z,25.30
2019-06-01T18:28:33.511Z,25.20
2019-06-01T18:31:02.680Z,25.00
2019-06-01T18:33:31.169Z,24.80
2019-06-01T18:35:59.667Z,24.60
2019-06-01T18:38:28.120Z,24.40
2019-06-01T18:41:09.415Z,24.50
2019-06-01T18:43:26.781Z,24.50
2019-06-01T18:45:55.277Z,24.50
2019-06-01T18:48:23.792Z,24.30
2019-06-01T18:50:52.290Z,24.20
2019-06-01T18:53:20.723Z,24.10
2019-06-01T18:55:49.146Z,24.00
2019-06-01T18:58:17.570Z,23.80
2019-06-01T19:00:46.243Z,23.80
2019-06-01T19:03:15.522Z,23.50
2019-06-01T19:05:44.179Z,23.20
2019-06-01T19:08:13.638Z,23.00
2019-06-01T19:10:42.234Z,22.80
2019-06-01T19:13:11.702Z,22.90
2019-06-01T19:15:40.624Z,22.70
2019-06-01T19:18:10.350Z,22.50
2019-06-01T19:20:38.935Z,22.50
2019-06-01T19:23:08.571Z,22.20
2019-06-01T19:25:37.290Z,22.00
2019-06-01T19:28:06.806Z,21.80
2019-06-01T19:30:40.199Z,21.60
2019-06-01T19:33:10.908Z,21.50
2019-06-01T19:35:41.360Z,21.40
2019-06-01T19:38:13.236Z,21.20
2019-06-01T19:40:44.981Z,21.30
2019-06-01T19:43:13.525Z,21.20
2019-06-01T19:45:41.995Z,21.10
2019-06-01T19:48:12.164Z,21.00
2019-06-01T19:50:40.811Z,20.90
2019-06-01T19:53:10.474Z,20.70
2019-06-01T19:55:39.063Z,20.60
2019-06-01T19:58:07.551Z,20.50
2019-06-01T20:00:35.982Z,20.40
2019-06-01T20:03:05.356Z,20.30
2019-06-01T20:05:33.775Z,20.20
2019-06-01T20:08:02.205Z,20.20
2019-06-01T20:10:30.636Z,20.00
2019-06-01T20:12:59.075Z,19.90
2019-06-01T20:15:27.502Z,19.70
2019-06-01T20:17:55.966Z,19.60
2019-06-01T20:20:24.397Z,19.20
2019-06-01T20:22:52.843Z,19.10
2019-06-01T20:25:21.766Z,19.10
2019-06-01T20:27:50.292Z,19.20
2019-06-01T20:30:19.908Z,19.20
2019-06-01T20:32:48.776Z,19.20
2019-06-01T20:35:18.069Z,19.00
2019-06-01T20:37:46.546Z,18.80
2019-06-01T20:40:16.279Z,18.60
2019-06-01T20:42:44.815Z,18.50
2019-06-01T20:45:14.452Z,18.40
2019-06-01T20:47:43.133Z,18.40
2019-06-01T20:50:12.777Z,18.40
2019-06-01T20:52:41.229Z,18.40
2019-06-01T20:55:09.975Z,18.20
2019-06-01T20:57:38.420Z,18.00
2019-06-01T21:00:08.391Z,18.00
2019-06-01T21:02:36.999Z,18.00
2019-06-01T21:05:06.854Z,17.90
2019-06-01T21:07:35.308Z,17.90
2019-06-01T21:10:08.461Z,17.60
2019-06-01T21:12:44.761Z,17.60
2019-06-01T21:15:09.680Z,17.50
2019-06-01T21:17:38.214Z,17.40
2019-06-01T21:20:08.787Z,17.50
2019-06-01T21:22:37.650Z,17.30
2019-06-01T21:25:07.407Z,17.10
2019-06-01T21:27:35.891Z,17.00
2019-06-01T21:30:06.239Z,16.80
2019-06-01T21:32:34.666Z,16.80
2019-06-01T21:35:03.173Z,16.90
2019-06-01T21:37:31.595Z,16.90
2019-06-01T21:40:00.031Z,16.90
2019-06-01T21:42:28.447Z,16.80
2019-06-01T21:44:56.902Z,16.90
2019-06-01T21:47:25.889Z,16.80
2019-06-01T21:49:54.450Z,16.60
2019-06-01T21:52:24.138Z,16.50
2019-06-01T21:54:53.023Z,16.40
2019-06-01T21:57:22.320Z,16.40
2019-06-01T21:59:50.891Z,16.40
2019-06-01T22:02:20.927Z,16.40
2019-06-01T22:04:49.472Z,16.20
2019-06-01T22:07:19.179Z,16.00
2019-06-01T22:09:47.728Z,16.00
2019-06-01T22:12:17.232Z,16.00
2019-06-01T22:14:45.749Z,16.00
2019-06-01T22:17:14.175Z,15.80
2019-06-01T22:19:42.619Z,15.80
2019-06-01T22:22:11.026Z,15.70
2019-06-01T22:24:39.492Z,15.80
2019-06-01T22:27:07.917Z,15.80
2019-06-01T22:29:36.361Z,15.70
2019-06-01T22:32:04.787Z,15.60
2019-06-01T22:34:33.236Z,15.50
2019-06-01T22:37:01.667Z,15.60
2019-06-01T22:39:30.112Z,15.60
2019-06-01T22:41:58.547Z,15.30
2019-06-01T22:44:28.276Z,15.20
2019-06-01T22:46:56.888Z,15.30
2019-06-01T22:49:25.330Z,15.30
2019-06-01T22:51:53.755Z,15.20
2019-06-01T22:54:23.057Z,15.20
2019-06-01T22:56:51.645Z,15.10
2019-06-01T22:59:20.490Z,15.20
2019-06-01T23:01:48.993Z,15.20
2019-06-01T23:04:17.435Z,15.20
2019-06-01T23:06:45.861Z,15.10
2019-06-01T23:09:14.379Z,14.80
2019-06-01T23:11:42.876Z,14.70
2019-06-01T23:14:11.313Z,14.70
2019-06-01T23:16:39.731Z,14.70
2019-06-01T23:19:08.189Z,14.70
2019-06-01T23:21:36.701Z,14.80
2019-06-01T23:24:05.116Z,14.70
2019-06-01T23:26:33.555Z,14.70
2019-06-01T23:29:01.983Z,14.70
2019-06-01T23:31:30.485Z,14.70
2019-06-01T23:33:58.918Z,14.60
2019-06-01T23:36:28.863Z,14.60
2019-06-01T23:38:57.450Z,14.40
2019-06-01T23:41:26.634Z,14.20
2019-06-01T23:44:10.348Z,14.00
2019-06-01T23:46:25.262Z,14.10
2019-06-01T23:48:53.673Z,14.10
2019-06-01T23:51:23.300Z,14.10
2019-06-01T23:53:51.907Z,14.20
2019-06-01T23:56:20.343Z,14.30
2019-06-01T23:58:48.758Z,14.30
